Time;durP1;ratioP1;P1;durP2;ratioP2;P2;SDS_P1;SDS_P2;PMS_P1;PMS_P2;Temp;Humidity;BMP_temperature;BMP_pressure;BME280_temperature;BME280_humidity;BME280_pressure;Samples;Min_cycle;Max_cycle;Signal;HPM_P1;HPM_P2
2022/09/13 00:02:26;;;;;;;97.27;12.13;;;;;;;22.77;76.45;100130.72;5064719;28;20056;-70
2022/09/13 00:05:20;;;;;;;19.17;7.33;;;;;;;22.44;76.66;100069.97;5013616;28;20053;-68
2022/09/13 00:07:57;;;;;;;20.17;7.30;;;;;;;22.77;76.07;100109.41;5064942;28;20108;-68
2022/09/13 00:10:33;;;;;;;22.43;7.87;;;;;;;22.73;76.19;100116.72;5062688;28;20067;-68
2022/09/13 00:13:18;;;;;;;24.10;7.60;;;;;;;22.73;76.32;100118.56;5064532;28;20380;-66
2022/09/13 00:16:04;;;;;;;16.27;7.60;;;;;;;22.80;76.63;100115.34;5064474;28;20283;-67
2022/09/13 00:18:47;;;;;;;19.77;7.07;;;;;;;22.87;76.34;100112.28;5064663;28;20307;-68
2022/09/13 00:21:26;;;;;;;17.67;7.70;;;;;;;22.87;76.10;100105.13;5064656;28;20088;-67
2022/09/13 00:24:12;;;;;;;29.93;7.37;;;;;;;23.13;76.19;100095.31;5062049;28;20075;-66
2022/09/13 00:27:01;;;;;;;30.10;7.10;;;;;;;23.46;74.52;100096.50;5063734;28;20103;-68
2022/09/13 00:29:44;;;;;;;17.27;7.00;;;;;;;23.54;73.76;100083.47;5064459;28;20056;-68
2022/09/13 00:32:30;;;;;;;71.23;10.07;;;;;;;23.64;73.74;100095.19;5013343;28;20490;-66
2022/09/13 00:35:19;;;;;;;25.13;7.13;;;;;;;23.68;71.73;100090.44;5063704;28;20056;-68
2022/09/13 00:38:03;;;;;;;19.73;6.68;;;;;;;23.59;70.70;100084.00;5064333;28;20069;-67
2022/09/13 00:40:51;;;;;;;14.67;5.20;;;;;;;23.53;68.51;100072.91;5064077;28;20373;-68
2022/09/13 00:43:44;;;;;;;41.77;6.80;;;;;;;23.73;67.51;100082.16;5064233;28;20071;-67
2022/09/13 00:46:26;;;;;;;33.33;6.83;;;;;;;23.64;67.11;100079.16;5063650;28;20107;-67
2022/09/13 00:49:09;;;;;;;60.53;9.00;;;;;;;23.57;67.20;100077.91;5063909;28;20120;-68
2022/09/13 00:51:55;;;;;;;25.33;5.57;;;;;;;23.54;65.30;100077.28;5063728;28;20049;-68
2022/09/13 00:54:50;;;;;;;9.67;4.37;;;;;;;23.42;65.39;100073.72;5063193;28;20059;-67
2022/09/13 00:57:29;;;;;;;17.83;6.10;;;;;;;23.33;65.23;100055.72;5063899;28;20053;-67
2022/09/13 01:00:15;;;;;;;25.73;5.37;;;;;;;23.23;64.60;100053.69;5063680;28;20064;-66
2022/09/13 01:03:02;;;;;;;15.70;4.20;;;;;;;22.98;63.85;100035.13;5063874;28;20045;-70
2022/09/13 01:06:02;;;;;;;11.07;4.40;;;;;;;23.06;64.56;100035.41;5064110;28;20079;-67
2022/09/13 01:08:57;;;;;;;24.45;4.95;;;;;;;22.82;65.13;100001.56;5057412;28;20077;-69
2022/09/13 01:11:43;;;;;;;18.70;5.00;;;;;;;23.11;66.20;100029.75;5063065;28;20073;-67
2022/09/13 01:14:27;;;;;;;10.97;4.83;;;;;;;23.20;66.49;100031.75;5062330;28;20060;-68
2022/09/13 01:17:14;;;;;;;12.37;4.50;;;;;;;23.24;65.60;100033.25;5063722;28;20099;-68
2022/09/13 01:19:55;;;;;;;10.07;4.13;;;;;;;23.28;64.80;100039.19;5030132;28;20053;-69
2022/09/13 01:23:08;;;;;;;12.53;4.60;;;;;;;23.28;65.09;100033.88;5063020;28;20048;-68
2022/09/13 01:26:10;;;;;;;18.10;5.13;;;;;;;23.21;65.07;100029.00;5028521;28;20060;-67
2022/09/13 01:32:46;;;;;;;41.03;5.90;;;;;;;23.40;64.92;100022.31;5060187;28;20080;-67
2022/09/13 01:35:45;;;;;;;13.27;4.43;;;;;;;23.54;64.50;100014.16;5063188;28;20055;-68
2022/09/13 01:39:07;;;;;;;22.27;5.17;;;;;;;23.77;65.04;100019.59;5062378;28;20345;-68
2022/09/13 01:42:00;;;;;;;11.30;4.47;;;;;;;23.88;63.42;100000.94;5062267;28;20286;-67
2022/09/13 01:45:06;;;;;;;18.53;5.63;;;;;;;24.15;62.93;100002.47;5022079;28;20095;-67
2022/09/13 01:47:54;;;;;;;23.03;4.70;;;;;;;24.37;61.76;99997.19;5008717;28;20104;-68
2022/09/13 01:50:42;;;;;;;11.23;3.73;;;;;;;24.46;61.22;99991.16;5051857;28;20052;-67
2022/09/13 01:53:25;;;;;;;29.17;5.70;;;;;;;24.72;60.84;99973.03;5063102;28;20060;-69
2022/09/13 01:56:15;;;;;;;8.43;3.92;;;;;;;24.84;60.58;99965.88;5062972;28;20088;-67
2022/09/13 01:58:57;;;;;;;31.53;5.40;;;;;;;24.96;61.07;99967.56;5061314;28;20059;-67
2022/09/13 02:01:47;;;;;;;14.97;4.30;;;;;;;25.07;60.06;99995.22;5063097;28;20084;-68
2022/09/13 02:04:26;;;;;;;18.77;4.47;;;;;;;25.13;60.06;99994.72;5017785;28;20100;-67
2022/09/13 02:07:11;;;;;;;11.70;3.83;;;;;;;25.01;59.26;100009.06;5062897;28;20077;-67
2022/09/13 02:09:51;;;;;;;10.33;3.87;;;;;;;24.86;59.82;100012.03;5025300;28;20471;-68
2022/09/13 02:12:36;;;;;;;15.40;4.10;;;;;;;24.94;60.67;100016.75;5066130;28;20122;-68
2022/09/13 02:15:34;;;;;;;12.70;4.60;;;;;;;25.09;60.69;100014.69;5083017;28;20102;-68
2022/09/13 02:18:36;;;;;;;14.60;3.83;;;;;;;24.94;59.55;99969.50;5083250;28;20075;-67
2022/09/13 02:21:38;;;;;;;34.40;6.33;;;;;;;25.22;59.80;100003.88;5082891;28;20059;-68
2022/09/13 02:24:33;;;;;;;16.47;4.60;;;;;;;25.37;60.38;100024.00;5082504;28;20048;-69
2022/09/13 02:27:27;;;;;;;20.47;5.10;;;;;;;25.31;59.84;100008.44;5083208;28;20078;-67
2022/09/13 02:30:07;;;;;;;10.17;3.90;;;;;;;25.38;59.90;100021.16;5082675;28;20056;-68
2022/09/13 02:32:55;;;;;;;10.90;4.20;;;;;;;25.33;59.80;100028.72;5083064;28;20056;-68
2022/09/13 02:35:37;;;;;;;14.70;4.23;;;;;;;24.91;59.61;99983.13;5083034;28;20058;-69
2022/09/13 02:38:28;;;;;;;10.00;4.83;;;;;;;24.65;59.31;99958.47;5081972;28;20258;-68
2022/09/13 02:41:18;;;;;;;12.93;4.20;;;;;;;24.81;60.19;100006.22;5081519;28;20123;-70
2022/09/13 02:44:01;;;;;;;9.47;3.43;;;;;;;25.05;60.05;100003.38;5045978;28;20074;-68
2022/09/13 02:46:53;;;;;;;7.33;3.23;;;;;;;25.07;57.50;100011.28;5082975;28;20060;-68
2022/09/13 02:49:45;;;;;;;10.38;3.33;;;;;;;24.64;57.81;99961.28;5083858;28;20066;-68
2022/09/13 02:52:34;;;;;;;57.73;6.27;;;;;;;25.07;57.75;100038.00;5083265;28;20052;-68
2022/09/13 02:55:34;;;;;;;8.43;3.27;;;;;;;25.24;57.37;100040.19;5085981;28;20098;-66
2022/09/13 02:58:23;;;;;;;12.33;3.13;;;;;;;25.34;55.09;100033.13;5065251;28;20112;-66
2022/09/13 03:01:04;;;;;;;61.53;6.10;;;;;;;25.61;54.40;100026.47;5081875;28;20112;-65
2022/09/13 03:03:52;;;;;;;16.37;2.83;;;;;;;25.92;53.20;100026.63;5085415;28;20052;-66
2022/09/13 03:06:38;;;;;;;12.23;2.90;;;;;;;26.15;51.78;100020.13;5084984;28;20060;-65
2022/09/13 03:09:25;;;;;;;8.83;2.93;;;;;;;26.15;51.91;100020.13;5081725;28;20225;-66
2022/09/13 03:12:29;;;;;;;133.67;11.47;;;;;;;26.08;52.63;100012.75;5082003;28;20845;-67
2022/09/13 03:15:28;;;;;;;5.17;2.50;;;;;;;25.68;52.46;100002.72;5062925;28;20103;-68
2022/09/13 03:18:22;;;;;;;20.17;4.00;;;;;;;25.51;51.23;100009.47;5062598;28;20065;-66
2022/09/13 03:21:12;;;;;;;39.30;4.70;;;;;;;25.22;51.75;100003.88;5014135;28;20052;-66
2022/09/13 03:24:05;;;;;;;23.43;3.67;;;;;;;25.06;51.75;100014.91;5062936;28;20080;-66
2022/09/13 03:26:59;;;;;;;8.20;2.67;;;;;;;24.93;51.13;100015.88;5062663;28;20064;-66
2022/09/13 03:30:04;;;;;;;13.93;3.23;;;;;;;24.82;51.96;100013.25;5031235;28;20245;-66
2022/09/13 03:32:51;;;;;;;30.67;4.30;;;;;;;24.72;50.97;100012.28;5059934;28;20061;-67
2022/09/13 03:35:32;;;;;;;9.90;4.00;;;;;;;24.47;51.52;100014.22;5062291;28;20108;-67
2022/09/13 03:38:11;;;;;;;12.88;3.22;;;;;;;24.37;51.62;100023.88;5061676;28;20064;-66
2022/09/13 03:40:49;;;;;;;35.30;5.03;;;;;;;24.16;51.60;100025.53;5062510;28;20052;-65
2022/09/13 03:43:36;;;;;;;15.90;3.80;;;;;;;23.86;52.85;100024.22;5061738;28;20061;-67
2022/09/13 03:46:31;;;;;;;24.43;4.20;;;;;;;23.74;54.00;100041.16;5062330;28;20044;-67
2022/09/13 03:49:15;;;;;;;11.17;3.10;;;;;;;23.56;53.76;100040.69;5058243;28;20346;-65
2022/09/13 03:51:56;;;;;;;6.03;3.07;;;;;;;23.20;54.00;100015.78;5062480;28;20056;-66
2022/09/13 03:54:34;;;;;;;13.00;3.47;;;;;;;23.13;55.20;100026.00;5030711;28;20048;-67
2022/09/13 03:57:14;;;;;;;20.07;4.00;;;;;;;23.13;55.56;100039.34;5062329;28;20048;-65
2022/09/13 04:00:02;;;;;;;13.57;3.70;;;;;;;23.05;55.47;100033.72;5062350;28;20052;-65
2022/09/13 04:02:45;;;;;;;9.60;3.57;;;;;;;23.00;56.14;100035.88;5037562;28;20052;-65
2022/09/13 04:05:31;;;;;;;56.63;6.50;;;;;;;22.95;56.86;100037.97;5062387;28;20063;-66
2022/09/13 04:08:27;;;;;;;47.20;6.40;;;;;;;22.80;56.81;100039.91;5061937;28;20118;-65
2022/09/13 04:11:15;;;;;;;12.17;3.43;;;;;;;22.72;57.96;100043.13;5062348;28;20076;-65
2022/09/13 04:13:58;;;;;;;19.43;4.00;;;;;;;22.47;58.13;100021.84;5076901;28;20052;-65
2022/09/13 04:16:46;;;;;;;19.73;4.37;;;;;;;22.63;60.00;100048.25;5100353;28;20107;-66
2022/09/13 04:19:39;;;;;;;20.77;5.87;;;;;;;22.58;60.18;100043.25;5030168;28;20245;-65
2022/09/13 04:22:27;;;;;;;50.57;7.97;;;;;;;22.49;59.79;100047.41;5071762;28;20347;-66
2022/09/13 04:28:16;;;;;;;43.43;6.70;;;;;;;22.57;61.20;100053.03;5051282;28;20332;-66
2022/09/13 04:30:59;;;;;;;;;;;;;;;22.66;61.09;100054.19;5053813;28;20048;-66
2022/09/13 04:33:36;;;;;;;63.93;8.17;;;;;;;22.73;60.99;100044.81;5093290;28;19915;-65
2022/09/13 04:36:20;;;;;;;33.67;6.40;;;;;;;22.83;60.86;100048.53;5100417;28;20111;-65
2022/09/13 04:38:57;;;;;;;17.20;4.07;;;;;;;22.90;61.19;100050.78;5100149;28;20313;-65
2022/09/13 04:41:59;;;;;;;16.30;4.97;;;;;;;22.88;61.33;100047.38;5081750;28;20049;-64
2022/09/13 04:44:43;;;;;;;26.27;5.57;;;;;;;22.78;60.99;100048.00;5099107;28;20123;-66
2022/09/13 04:47:25;;;;;;;15.37;3.63;;;;;;;22.64;58.21;100066.78;5099549;28;20059;-66
2022/09/13 04:50:23;;;;;;;10.63;4.07;;;;;;;22.51;59.65;100071.25;5081107;28;20304;-66
2022/09/13 04:53:05;;;;;;;11.70;4.17;;;;;;;22.36;58.72;100074.00;5081557;28;20045;-67
2022/09/13 04:55:53;;;;;;;10.17;3.93;;;;;;;22.19;59.18;100066.31;5053988;28;20611;-66
2022/09/13 04:58:41;;;;;;;19.07;4.70;;;;;;;21.95;59.77;100059.00;5080635;28;20045;-67
2022/09/13 05:01:27;;;;;;;20.70;4.73;;;;;;;21.56;60.93;100048.34;5080383;28;20052;-67
2022/09/13 05:04:05;;;;;;;23.67;4.93;;;;;;;21.52;61.58;100072.47;5081344;28;20052;-66
2022/09/13 05:06:43;;;;;;;28.60;5.60;;;;;;;21.40;62.49;100073.28;5079615;28;20066;-67
2022/09/13 05:12:17;;;;;;;10.00;4.90;;;;;;;21.11;63.60;100094.53;5096436;28;20056;-67
2022/09/13 05:14:59;;;;;;;13.00;4.93;;;;;;;20.86;63.06;100091.72;5045256;28;20083;-66
2022/09/13 05:17:36;;;;;;;19.00;4.90;;;;;;;20.65;63.45;100081.47;5081253;28;20309;-65
2022/09/13 05:20:21;;;;;;;25.03;5.47;;;;;;;20.70;64.18;100093.63;5081051;28;20385;-66
2022/09/13 05:23:11;;;;;;;39.78;7.30;;;;;;;20.62;64.49;100084.31;5046601;28;20286;-67
2022/09/13 05:26:13;;;;;;;15.10;4.57;;;;;;;20.53;64.93;100070.72;5080792;28;20539;-65
2022/09/13 05:29:02;;;;;;;14.07;4.70;;;;;;;20.46;65.82;100070.22;4973932;28;20299;-64
2022/09/13 05:31:54;;;;;;;15.03;5.27;;;;;;;20.45;66.39;100084.44;5037949;28;20298;-67
2022/09/13 05:34:36;;;;;;;25.77;6.03;;;;;;;20.36;66.99;100064.59;5036149;28;20424;-66
2022/09/13 05:37:42;;;;;;;16.53;5.83;;;;;;;20.29;68.65;100067.72;5037008;28;20577;-67
2022/09/13 05:40:22;;;;;;;21.20;5.37;;;;;;;20.26;70.91;100059.00;4991513;28;20350;-64
2022/09/13 05:43:24;;;;;;;17.70;6.03;;;;;;;20.11;75.97;100051.97;5037677;28;20528;-66
2022/09/13 05:46:06;;;;;;;15.30;6.40;;;;;;;20.00;77.64;100062.38;5037326;28;20316;-65
2022/09/13 05:48:49;;;;;;;13.33;5.67;;;;;;;19.82;79.13;100059.84;5010933;28;20374;-64
2022/09/13 05:51:35;;;;;;;12.23;5.03;;;;;;;19.82;76.00;100059.84;5037373;28;20373;-65
2022/09/13 05:56:56;;;;;;;11.83;4.70;;;;;;;19.92;76.13;100060.16;5035660;28;20281;-64
2022/09/13 05:59:43;;;;;;;11.03;4.80;;;;;;;20.01;74.65;100064.06;5036921;28;20276;-64
2022/09/13 06:02:34;;;;;;;12.03;5.10;;;;;;;20.07;74.21;100063.72;5036943;28;20320;-65
2022/09/13 06:05:13;;;;;;;10.50;5.53;;;;;;;19.92;74.38;100048.69;5037279;28;20323;-66
2022/09/13 06:08:19;;;;;;;11.83;5.00;;;;;;;20.07;75.92;100053.09;5036486;28;20045;-65
2022/09/13 06:11:03;;;;;;;11.63;4.60;;;;;;;19.94;75.67;100014.97;5037819;28;20296;-65
2022/09/13 06:13:48;;;;;;;11.60;4.67;;;;;;;20.20;75.43;100059.38;5035511;28;20284;-65
2022/09/13 06:16:41;;;;;;;8.33;3.97;;;;;;;20.08;74.40;100078.66;5036867;28;20288;-65
2022/09/13 06:19:23;;;;;;;7.40;3.87;;;;;;;19.83;72.24;100087.19;5003668;28;20291;-65
2022/09/13 06:22:03;;;;;;;12.37;4.67;;;;;;;19.59;72.70;100089.41;5035005;28;20314;-65
2022/09/13 06:24:55;;;;;;;8.50;4.00;;;;;;;19.43;72.92;100092.09;5012526;28;20310;-68
2022/09/13 06:27:50;;;;;;;16.33;4.53;;;;;;;19.10;73.58;100070.97;5083102;28;20335;-66
2022/09/13 06:30:41;;;;;;;13.47;4.07;;;;;;;19.19;73.60;100096.94;5084248;28;20041;-64
2022/09/13 06:33:42;;;;;;;7.60;4.10;;;;;;;19.08;74.05;100104.63;5084150;28;20411;-65
2022/09/13 06:36:44;;;;;;;7.77;3.90;;;;;;;18.93;75.22;100133.63;5082508;28;20287;-66
2022/09/13 06:39:31;;;;;;;9.67;4.30;;;;;;;18.79;75.77;100146.72;5056248;28;20307;-66
2022/09/13 06:42:13;;;;;;;11.13;4.80;;;;;;;18.66;76.76;100145.63;5036552;28;20611;-64
2022/09/13 06:45:12;;;;;;;11.47;4.93;;;;;;;18.52;77.91;100133.97;5082809;28;20275;-63
2022/09/13 06:48:02;;;;;;;15.67;5.20;;;;;;;18.39;79.63;100132.88;5084745;28;20303;-62
2022/09/13 06:50:44;;;;;;;10.77;4.87;;;;;;;18.48;80.20;100135.06;5082863;28;20279;-62
2022/09/13 06:53:26;;;;;;;8.80;4.87;;;;;;;18.42;81.20;100138.03;5083226;28;20345;-63
2022/09/13 06:56:12;;;;;;;7.90;4.53;;;;;;;18.30;82.62;100117.47;5083997;28;20278;-62
2022/09/13 06:58:57;;;;;;;10.97;4.40;;;;;;;18.25;84.37;100120.34;5083548;28;20324;-61
2022/09/13 07:01:37;;;;;;;12.77;5.87;;;;;;;18.38;83.97;100146.19;5081935;28;20329;-63
2022/09/13 07:04:30;;;;;;;10.53;5.20;;;;;;;18.03;84.55;100080.91;5098194;28;20317;-63
2022/09/13 07:07:20;;;;;;;8.33;5.40;;;;;;;18.13;85.62;100130.69;5053838;28;20302;-63
2022/09/13 07:10:03;;;;;;;10.00;4.90;;;;;;;18.09;84.66;100120.25;5102434;28;20284;-62
2022/09/13 07:12:42;;;;;;;7.53;5.13;;;;;;;18.19;85.61;100123.28;5083386;28;20291;-62
2022/09/13 07:15:31;;;;;;;17.77;9.37;;;;;;;18.20;86.19;100126.81;5083240;28;20295;-62
2022/09/13 07:18:09;;;;;;;12.87;7.40;;;;;;;18.24;87.45;100128.34;5083219;28;20283;-62
2022/09/13 07:20:52;;;;;;;16.40;7.63;;;;;;;17.87;88.24;100056.16;5083191;28;20313;-62
2022/09/13 07:23:43;;;;;;;15.00;8.27;;;;;;;18.31;88.32;100135.06;5082799;28;20287;-62
2022/09/13 07:26:20;;;;;;;22.60;12.27;;;;;;;18.41;88.49;100136.28;5099406;28;20339;-63
2022/09/13 07:29:04;;;;;;;29.90;19.80;;;;;;;18.49;88.16;100142.03;5099508;28;20301;-63
2022/09/13 07:31:45;;;;;;;31.80;22.20;;;;;;;18.40;88.52;100113.44;5082899;28;20346;-62
2022/09/13 07:34:31;;;;;;;14.93;10.07;;;;;;;18.58;88.60;100142.53;5082145;28;20274;-62
2022/09/13 07:37:20;;;;;;;12.67;6.40;;;;;;;18.65;87.44;100143.94;5030653;28;20301;-63
2022/09/13 07:40:03;;;;;;;10.90;5.43;;;;;;;18.36;87.11;100114.50;5082420;28;20838;-63
2022/09/13 07:42:49;;;;;;;8.90;5.40;;;;;;;18.58;87.14;100163.69;5082710;28;20357;-62
2022/09/13 07:45:48;;;;;;;9.33;5.60;;;;;;;18.47;86.86;100145.69;5030910;28;20282;-62
2022/09/13 07:48:29;;;;;;;9.70;4.97;;;;;;;18.59;87.00;100165.41;5082472;28;20307;-62
2022/09/13 07:51:44;;;;;;;11.25;4.10;;;;;;;18.42;85.71;100164.47;5003412;28;20298;-62
2022/09/13 07:54:29;;;;;;;6.20;4.03;;;;;;;18.40;85.61;100184.84;5082301;28;20349;-63
2022/09/13 07:57:13;;;;;;;6.93;4.03;;;;;;;18.43;86.24;100192.63;5082083;28;20338;-63
2022/09/13 08:00:00;;;;;;;6.40;4.23;;;;;;;18.28;86.35;100159.03;5082307;28;20049;-63
2022/09/13 08:03:02;;;;;;;4.80;3.57;;;;;;;18.46;85.17;100184.53;5066756;28;20294;-63
2022/09/13 08:08:32;;;;;;;6.70;3.70;;;;;;;18.18;84.96;100186.84;5030669;28;20310;-63
2022/09/13 08:11:18;;;;;;;6.60;3.40;;;;;;;18.02;84.07;100192.91;5081884;28;20301;-63
2022/09/13 08:14:03;;;;;;;5.83;3.50;;;;;;;17.78;83.10;100200.16;5047212;28;20060;-63
2022/09/13 08:17:09;;;;;;;4.80;3.00;;;;;;;17.67;83.85;100198.03;5082017;28;20318;-64
2022/09/13 08:19:52;;;;;;;6.77;3.77;;;;;;;17.64;84.60;100219.28;5092997;28;20294;-64
2022/09/13 08:22:45;;;;;;;8.83;3.90;;;;;;;17.58;85.83;100209.03;5037849;28;20325;-64
2022/09/13 08:25:30;;;;;;;4.37;3.37;;;;;;;17.35;85.91;100190.75;5058097;28;20282;-65
2022/09/13 08:28:24;;;;;;;4.80;2.83;;;;;;;17.32;85.32;100223.41;5099707;28;20514;-64
2022/09/13 08:31:05;;;;;;;5.23;2.70;;;;;;;17.17;85.50;100219.69;5044359;28;20274;-64
2022/09/13 08:34:00;;;;;;;2.67;1.50;;;;;;;16.97;85.50;100222.31;5096816;28;20297;-65
2022/09/13 08:36:39;;;;;;;1.67;1.20;;;;;;;16.87;85.42;100221.84;5097895;28;20282;-65
2022/09/13 08:39:20;;;;;;;2.33;1.27;;;;;;;16.74;85.24;100221.50;5057708;28;20294;-64
2022/09/13 08:42:18;;;;;;;2.03;1.20;;;;;;;16.64;85.68;100236.00;5099665;28;20316;-66
2022/09/13 08:45:06;;;;;;;2.23;1.20;;;;;;;16.43;86.26;100215.81;5097362;28;20341;-65
2022/09/13 08:47:55;;;;;;;2.73;1.23;;;;;;;16.48;86.29;100234.94;5098507;28;20289;-65
2022/09/13 08:50:43;;;;;;;2.33;0.85;;;;;;;16.46;84.88;100242.06;5097616;28;20326;-66
2022/09/13 08:53:30;;;;;;;3.53;1.10;;;;;;;16.41;84.96;100244.03;5097486;28;20048;-65
2022/09/13 08:56:15;;;;;;;2.67;1.00;;;;;;;16.33;84.15;100245.19;5097869;28;20320;-64
2022/09/13 08:59:16;;;;;;;4.57;1.00;;;;;;;16.27;84.61;100240.16;5095423;28;20286;-66
2022/09/13 09:02:13;;;;;;;2.70;0.90;;;;;;;16.16;84.30;100239.72;5098818;28;20298;-65
2022/09/13 09:05:04;;;;;;;4.03;1.17;;;;;;;16.01;84.07;100235.06;5097037;28;20320;-64
2022/09/13 09:07:56;;;;;;;4.60;0.90;;;;;;;15.86;83.53;100232.09;5096885;28;20290;-65
2022/09/13 09:10:39;;;;;;;6.03;1.50;;;;;;;15.70;83.76;100220.44;5097986;28;20420;-64
2022/09/13 09:13:24;;;;;;;3.70;0.87;;;;;;;15.64;83.77;100236.44;5098319;28;20278;-65
2022/09/13 09:16:29;;;;;;;3.03;1.03;;;;;;;15.66;84.47;100266.22;5098606;28;20289;-65
2022/09/13 09:19:24;;;;;;;5.37;1.10;;;;;;;15.52;85.03;100270.25;5067725;28;20347;-64
2022/09/13 09:22:02;;;;;;;4.93;0.90;;;;;;;15.49;85.59;100296.66;5096384;28;20325;-66
2022/09/13 09:27:53;;;;;;;4.30;0.80;;;;;;;15.29;84.93;100351.81;5065222;28;20290;-65
2022/09/13 09:30:41;;;;;;;6.30;1.10;;;;;;;15.15;82.69;100361.94;5088798;28;20318;-62
2022/09/13 09:33:53;;;;;;;3.00;0.87;;;;;;;14.93;81.09;100375.81;5099670;28;20290;-63
2022/09/13 09:36:42;;;;;;;5.67;0.87;;;;;;;14.76;81.51;100372.88;5079048;28;20328;-65
2022/09/13 09:39:50;;;;;;;5.10;1.00;;;;;;;14.58;81.25;100380.44;5044522;28;20274;-66
2022/09/13 09:42:49;;;;;;;5.33;1.30;;;;;;;14.45;80.44;100394.81;5080863;28;20295;-65
2022/09/13 09:45:37;;;;;;;3.90;0.93;;;;;;;14.38;80.04;100403.81;5034124;28;20297;-66
2022/09/13 09:48:26;;;;;;;6.03;1.03;;;;;;;14.31;80.49;100413.63;5098096;28;20286;-67
2022/09/13 09:51:19;;;;;;;4.90;1.00;;;;;;;14.21;80.21;100410.41;5036964;28;20286;-68
2022/09/13 09:54:08;;;;;;;8.90;1.53;;;;;;;14.12;80.21;100420.31;5080372;28;20317;-67
2022/09/13 09:57:05;;;;;;;4.63;0.90;;;;;;;14.02;80.09;100441.59;5029118;28;20294;-66
2022/09/13 09:59:43;;;;;;;4.70;1.17;;;;;;;13.97;80.53;100445.25;5048158;28;20082;-68
2022/09/13 10:02:26;;;;;;;5.60;1.80;;;;;;;13.92;80.39;100447.16;5083897;28;20104;-67
2022/09/13 10:05:13;;;;;;;8.68;1.42;;;;;;;13.91;80.86;100455.94;5050185;28;20330;-63
2022/09/13 10:08:07;;;;;;;5.50;0.90;;;;;;;13.91;80.59;100471.69;5085460;28;20241;-63
2022/09/13 10:10:56;;;;;;;5.55;1.10;;;;;;;13.88;80.40;100466.50;5098397;28;20083;-66
2022/09/13 10:13:41;;;;;;;9.65;1.85;;;;;;;13.80;80.98;100470.22;5098587;28;20659;-66
2022/09/13 10:16:34;;;;;;;6.27;1.17;;;;;;;13.80;80.94;100485.97;5092963;28;20052;-65
2022/09/13 10:19:42;;;;;;;6.30;1.33;;;;;;;13.86;80.96;100482.31;5094169;28;20290;-64
2022/09/13 10:22:33;;;;;;;8.57;1.42;;;;;;;13.80;80.12;100479.84;5093516;28;20124;-62
2022/09/13 10:25:39;;;;;;;12.18;1.90;;;;;;;13.74;80.80;100486.13;5090498;28;20052;-63
2022/09/13 10:28:26;;;;;;;11.68;1.95;;;;;;;13.75;80.75;100514.13;5083510;28;20072;-65
2022/09/13 10:31:07;;;;;;;11.15;1.85;;;;;;;13.81;81.11;100519.22;5033576;28;20071;-66
2022/09/13 10:34:00;;;;;;;10.45;1.80;;;;;;;13.76;80.80;100521.09;5093487;28;20151;-66
2022/09/13 10:36:41;;;;;;;6.93;1.52;;;;;;;13.61;81.42;100521.50;5088985;28;20218;-65
2022/09/13 10:39:36;;;;;;;8.55;1.55;;;;;;;13.46;82.05;100512.22;5031326;28;20067;-69
2022/09/13 10:42:29;;;;;;;7.28;1.42;;;;;;;13.21;80.50;100485.66;5033212;28;20043;-65
2022/09/13 10:45:28;;;;;;;6.72;1.30;;;;;;;13.44;80.61;100549.91;5083561;28;20044;-68
2022/09/13 10:48:14;;;;;;;7.75;1.40;;;;;;;13.42;79.85;100541.19;5091520;28;20127;-67
2022/09/13 10:51:18;;;;;;;11.00;1.55;;;;;;;13.40;78.87;100548.25;5083321;28;20064;-68
2022/09/13 10:54:11;;;;;;;9.55;1.85;;;;;;;13.30;78.70;100552.84;5083456;28;20055;-66
2022/09/13 10:56:50;;;;;;;9.13;1.40;;;;;;;13.26;79.26;100546.78;5045790;28;20062;-67
2022/09/13 10:59:32;;;;;;;8.43;1.55;;;;;;;13.26;78.73;100557.28;5098493;28;20067;-65
2022/09/13 11:02:34;;;;;;;5.85;1.35;;;;;;;13.26;79.43;100556.41;5028756;28;20055;-66
2022/09/13 11:05:31;;;;;;;9.18;1.33;;;;;;;13.15;79.33;100556.63;5101464;28;20317;-68
2022/09/13 11:11:25;;;;;;;9.75;1.83;;;;;;;13.01;81.17;100571.84;5103209;28;20056;-68
2022/09/13 11:14:19;;;;;;;10.27;1.88;;;;;;;12.98;81.51;100571.88;5098674;28;20094;-67
2022/09/13 11:17:06;;;;;;;7.88;1.40;;;;;;;12.84;82.64;100580.91;5103036;28;20059;-65
2022/09/13 11:20:07;;;;;;;4.50;1.13;;;;;;;12.73;85.54;100603.88;5082022;28;20206;-68
2022/09/13 11:23:26;;;;;;;13.65;1.92;;;;;;;12.39;89.98;100617.63;5082795;28;20083;-64
2022/09/13 11:29:47;;;;;;;7.07;1.02;;;;;;;11.72;96.38;100611.72;5067710;28;20062;-67
2022/09/13 13:56:49;;;;;;;1.45;0.60;;;;;;;8.93;100.00;100828.97;5081481;28;20062;-63
2022/09/13 13:59:37;;;;;;;3.47;0.60;;;;;;;8.77;100.00;100822.06;5021759;28;20060;-61
2022/09/13 14:02:28;;;;;;;1.98;0.60;;;;;;;8.89;100.00;100845.50;5022007;28;20057;-60
2022/09/13 14:05:29;;;;;;;3.67;0.77;;;;;;;8.77;100.00;100835.06;4991322;28;20074;-61
2022/09/13 14:08:36;;;;;;;7.10;0.80;;;;;;;8.90;100.00;100860.25;5006038;28;20069;-61
2022/09/13 14:11:35;;;;;;;4.45;0.60;;;;;;;8.81;100.00;100844.59;5020920;28;20058;-61
2022/09/13 14:18:42;;;;;;;6.95;1.00;;;;;;;8.83;100.00;100879.38;5021785;28;20049;-62
2022/09/13 14:21:38;;;;;;;4.78;0.80;;;;;;;8.74;100.00;100879.38;5019122;28;20076;-63
2022/09/13 14:24:29;;;;;;;5.65;1.20;;;;;;;8.72;100.00;100896.75;5020969;28;20096;-61
2022/09/13 14:27:43;;;;;;;6.38;0.80;;;;;;;8.64;100.00;100887.19;5021354;28;20052;-61
2022/09/13 14:30:32;;;;;;;2.22;0.93;;;;;;;8.47;100.00;100891.47;5052628;28;20052;-62
2022/09/13 14:33:30;;;;;;;3.95;0.80;;;;;;;8.12;100.00;100821.94;5081084;28;20273;-62
2022/09/13 14:36:21;;;;;;;4.55;0.80;;;;;;;8.50;100.00;100896.69;5082377;28;20084;-59
2022/09/13 14:39:05;;;;;;;5.00;1.08;;;;;;;8.46;100.00;100910.56;5083137;28;20045;-60
2022/09/13 14:41:42;;;;;;;6.43;0.82;;;;;;;8.43;100.00;100906.22;5082134;28;20576;-61
2022/09/13 14:44:42;;;;;;;4.32;1.10;;;;;;;8.35;100.00;100897.47;5083432;28;20055;-59
2022/09/13 14:47:37;;;;;;;3.03;0.70;;;;;;;8.30;100.00;100900.94;5055824;28;20098;-62
2022/09/13 14:50:22;;;;;;;5.47;1.45;;;;;;;8.31;100.00;100900.06;5086334;28;20048;-61
2022/09/13 14:53:17;;;;;;;10.63;1.02;;;;;;;8.35;100.00;100901.84;5086395;28;20103;-62
2022/09/13 14:56:08;;;;;;;5.68;1.63;;;;;;;8.29;100.00;100896.63;5086437;28;20068;-62
2022/09/13 14:59:04;;;;;;;11.45;1.15;;;;;;;8.17;100.00;100893.09;5085924;28;20102;-61
2022/09/13 15:01:52;;;;;;;5.95;1.17;;;;;;;8.20;100.00;100913.94;5085452;28;20063;-61
2022/09/13 15:04:36;;;;;;;5.18;0.93;;;;;;;8.18;100.00;100915.66;5056105;28;20044;-60
2022/09/13 15:07:28;;;;;;;3.78;0.98;;;;;;;8.20;100.00;100929.53;5086324;28;20120;-60
2022/09/13 15:10:33;;;;;;;5.68;1.23;;;;;;;8.24;100.00;100932.16;5084725;28;20274;-61
2022/09/13 15:13:21;;;;;;;4.13;1.20;;;;;;;8.19;100.00;100891.38;5084965;28;20044;-61
2022/09/13 15:15:58;;;;;;;4.00;1.00;;;;;;;7.86;100.00;100880.81;5085022;28;20048;-60
2022/09/13 15:18:48;;;;;;;10.80;1.70;;;;;;;8.15;100.00;100928.66;5085945;28;20083;-59
2022/09/13 15:21:25;;;;;;;4.75;1.30;;;;;;;8.19;100.00;100938.22;5055419;28;20056;-61
2022/09/13 15:24:06;;;;;;;6.32;1.02;;;;;;;8.11;100.00;100939.94;5085923;28;20052;-61
2022/09/13 15:26:47;;;;;;;9.02;1.58;;;;;;;8.08;100.00;100955.53;5034373;28;20057;-61
2022/09/13 15:29:49;;;;;;;9.75;1.48;;;;;;;8.06;100.00;100952.03;5005813;28;20055;-60
2022/09/13 15:32:42;;;;;;;10.50;1.38;;;;;;;8.07;100.00;100951.19;5085714;28;20044;-60
2022/09/13 15:35:31;;;;;;;7.82;1.67;;;;;;;8.00;100.00;100946.81;5085694;28;20071;-61
2022/09/13 15:38:27;;;;;;;9.70;2.05;;;;;;;8.09;100.00;100959.88;5085269;28;20048;-60
2022/09/13 15:41:34;;;;;;;4.72;1.60;;;;;;;7.98;100.00;100948.53;5083865;28;20048;-60
2022/09/13 15:47:17;;;;;;;7.65;2.05;;;;;;;8.07;100.00;100974.63;5084452;28;20049;-60
2022/09/13 15:50:17;;;;;;;11.75;1.80;;;;;;;8.03;100.00;100978.06;5084702;28;20404;-61
2022/09/13 15:53:12;;;;;;;6.88;1.30;;;;;;;8.07;100.00;100974.63;5085471;28;20294;-61
2022/09/13 15:55:57;;;;;;;8.98;2.15;;;;;;;8.02;100.00;100978.94;5084390;28;20116;-61
2022/09/13 15:58:38;;;;;;;12.25;1.45;;;;;;;8.00;100.00;100981.50;5085157;28;20116;-61
2022/09/13 16:01:20;;;;;;;;;;;;;;;8.01;100.00;100982.38;5085519;28;20091;-60